createdAt,value
2018-04-02T00:02:20.513Z,21.80
2018-04-02T00:04:46.512Z,20.70
2018-04-02T00:07:12.453Z,19.67
2018-04-02T00:09:38.429Z,20.07
2018-04-02T00:12:04.397Z,21.30
2018-04-02T00:14:31.164Z,18.80
2018-04-02T00:16:57.140Z,20.63
2018-04-02T00:19:23.132Z,20.67
2018-04-02T00:21:49.831Z,19.53
2018-04-02T00:24:15.765Z,19.77
2018-04-02T00:26:41.731Z,20.87
2018-04-02T00:29:07.710Z,21.17
2018-04-02T00:31:33.708Z,19.33
2018-04-02T00:34:00.429Z,20.90
2018-04-02T00:36:26.382Z,19.67
2018-04-02T00:38:53.091Z,18.93
2018-04-02T00:41:19.073Z,18.50
2018-04-02T00:43:45.058Z,20.30
2018-04-02T00:46:11.059Z,18.30
2018-04-02T00:48:37.754Z,20.03
2018-04-02T00:51:03.722Z,19.37
2018-04-02T00:53:29.689Z,21.83
2018-04-02T00:55:56.414Z,17.73
2018-04-02T00:58:22.374Z,20.00
2018-04-02T01:00:49.085Z,18.97
2018-04-02T01:03:15.057Z,19.50
2018-04-02T01:05:41.027Z,18.07
2018-04-02T01:08:07.017Z,18.37
2018-04-02T01:10:33.001Z,16.90
2018-04-02T01:12:58.956Z,18.73
2018-04-02T01:15:24.921Z,19.20
2018-04-02T01:17:50.903Z,18.63
2018-04-02T01:20:16.854Z,17.20
2018-04-02T01:22:42.866Z,18.27
2018-04-02T01:25:15.775Z,19.47
2018-04-02T01:27:41.751Z,20.00
2018-04-02T01:30:07.703Z,20.00
2018-04-02T01:32:35.186Z,18.63
2018-04-02T01:35:01.949Z,19.03
2018-04-02T01:37:27.872Z,19.17
2018-04-02T01:39:53.850Z,19.07
2018-04-02T01:42:19.811Z,20.23
2018-04-02T01:44:45.803Z,20.33
2018-04-02T01:47:11.767Z,18.73
2018-04-02T01:49:37.758Z,18.10
2018-04-02T01:52:04.483Z,19.63
2018-04-02T01:54:30.469Z,21.30
2018-04-02T01:56:56.474Z,20.87
2018-04-02T01:59:22.422Z,18.47
2018-04-02T02:01:49.223Z,21.40
2018-04-02T02:04:15.193Z,21.57
2018-04-02T02:06:41.176Z,21.40
2018-04-02T02:09:07.149Z,22.83
2018-04-02T02:11:33.162Z,22.97
2018-04-02T02:13:59.213Z,22.60
2018-04-02T02:16:25.164Z,20.90
2018-04-02T02:18:51.119Z,21.27
2018-04-02T02:21:17.852Z,21.63
2018-04-02T02:23:43.824Z,22.47
2018-04-02T02:26:10.548Z,23.40
2018-04-02T02:28:36.532Z,20.53
2018-04-02T02:31:02.534Z,22.57
2018-04-02T02:33:28.514Z,20.63
2018-04-02T02:35:54.470Z,23.63
2018-04-02T02:38:20.475Z,22.10
2018-04-02T02:40:46.461Z,22.73
2018-04-02T02:43:12.409Z,22.83
2018-04-02T02:45:38.374Z,22.10
2018-04-02T02:48:04.427Z,23.27
2018-04-02T02:50:30.416Z,22.00
2018-04-02T02:52:56.366Z,21.93
2018-04-02T02:55:23.081Z,24.43
2018-04-02T02:57:49.062Z,21.90
2018-04-02T03:00:15.785Z,23.33
2018-04-02T03:02:41.759Z,21.50
2018-04-02T03:05:07.714Z,24.57
2018-04-02T03:07:33.726Z,25.77
2018-04-02T03:10:00.423Z,25.20
2018-04-02T03:12:26.421Z,23.40
2018-04-02T03:14:53.168Z,23.60
2018-04-02T03:17:19.916Z,25.90
2018-04-02T03:19:46.641Z,26.47
2018-04-02T03:22:12.611Z,25.37
2018-04-02T03:24:39.671Z,26.20
2018-04-02T03:27:06.436Z,26.83
2018-04-02T03:29:32.421Z,24.70
2018-04-02T03:31:58.406Z,25.27
2018-04-02T03:34:24.374Z,24.93
2018-04-02T03:36:50.414Z,26.90
2018-04-02T03:39:16.357Z,24.90
2018-04-02T03:41:42.302Z,25.40
2018-04-02T03:44:08.280Z,27.80
2018-04-02T03:46:35.001Z,25.00
2018-04-02T03:49:01.009Z,25.77
2018-04-02T03:51:26.966Z,23.50
2018-04-02T03:53:52.951Z,27.07
2018-04-02T03:56:18.947Z,24.37
2018-04-02T03:58:44.910Z,25.63
2018-04-02T04:01:11.625Z,26.20
2018-04-02T04:03:37.610Z,24.90
2018-04-02T04:06:03.638Z,27.50
2018-04-02T04:08:30.340Z,23.20
2018-04-02T04:10:56.317Z,25.17
2018-04-02T04:13:23.037Z,25.10
2018-04-02T04:15:48.988Z,24.53
2018-04-02T04:18:14.964Z,26.03
2018-04-02T04:20:40.914Z,23.60
2018-04-02T04:23:06.924Z,24.57
2018-04-02T04:25:33.713Z,25.57
2018-04-02T04:27:59.689Z,23.60
2018-04-02T04:30:25.646Z,25.53
2018-04-02T04:32:52.376Z,23.80
2018-04-02T04:35:18.320Z,25.27
2018-04-02T04:37:44.268Z,24.13
2018-04-02T04:40:10.998Z,23.90
2018-04-02T04:42:36.979Z,24.87
2018-04-02T04:45:02.988Z,22.37
2018-04-02T04:47:29.708Z,24.10
2018-04-02T04:49:55.695Z,22.07
2018-04-02T04:52:21.679Z,24.63
2018-04-02T04:54:47.656Z,25.13
2018-04-02T04:57:14.386Z,23.73
2018-04-02T04:59:41.812Z,25.30
2018-04-02T05:02:07.829Z,23.83
2018-04-02T05:04:33.804Z,23.97
2018-04-02T05:06:59.787Z,24.50
2018-04-02T05:09:26.520Z,25.07
2018-04-02T05:11:52.465Z,24.40
2018-04-02T05:14:19.223Z,23.63
2018-04-02T05:16:45.950Z,26.70
2018-04-02T05:19:11.934Z,26.23
2018-04-02T05:21:37.885Z,24.73
2018-04-02T05:24:03.905Z,24.97
2018-04-02T05:26:29.869Z,24.87
2018-04-02T05:28:55.846Z,26.50
2018-04-02T05:31:21.851Z,24.70
2018-04-02T05:33:47.850Z,25.70
2018-04-02T05:36:13.830Z,24.70
2018-04-02T05:38:39.806Z,27.43
2018-04-02T05:41:06.705Z,25.57
2018-04-02T05:43:32.721Z,23.90
2018-04-02T05:45:58.701Z,24.10
2018-04-02T05:48:24.712Z,22.40
2018-04-02T05:50:50.702Z,27.47
2018-04-02T05:53:17.394Z,24.27
2018-04-02T05:55:43.361Z,24.37
2018-04-02T05:58:09.340Z,23.67
2018-04-02T06:00:35.319Z,26.33
2018-04-02T06:03:01.262Z,23.47
2018-04-02T06:05:27.993Z,24.67
2018-04-02T06:07:54.044Z,23.00
2018-04-02T06:10:20.059Z,24.30
2018-04-02T06:12:46.048Z,24.50
2018-04-02T06:15:12.034Z,24.37
2018-04-02T06:17:38.012Z,25.87
2018-04-02T06:20:04.014Z,24.17
2018-04-02T06:22:30.015Z,24.90
2018-04-02T06:24:56.738Z,25.57
2018-04-02T06:27:22.717Z,25.17
2018-04-02T06:29:48.669Z,27.53
2018-04-02T06:32:14.678Z,25.93
2018-04-02T06:34:41.406Z,26.20
2018-04-02T06:37:07.373Z,29.07
2018-04-02T06:39:34.105Z,26.67
2018-04-02T06:42:00.826Z,29.20
2018-04-02T06:44:26.778Z,28.50
2018-04-02T06:46:52.758Z,26.80
2018-04-02T06:49:18.710Z,27.77
2018-04-02T06:51:44.685Z,29.17
2018-04-02T06:54:12.130Z,27.60
2018-04-02T06:56:38.101Z,26.30
2018-04-02T06:59:04.098Z,26.07
2018-04-02T07:01:30.082Z,26.13
2018-04-02T07:03:56.764Z,27.60
2018-04-02T07:06:22.746Z,28.73
2018-04-02T07:08:48.725Z,27.50
2018-04-02T07:11:14.712Z,25.80
2018-04-02T07:13:41.194Z,24.13
2018-04-02T07:16:07.932Z,26.10
2018-04-02T07:18:33.925Z,25.60
2018-04-02T07:20:59.906Z,25.03
2018-04-02T07:23:25.872Z,25.27
2018-04-02T07:25:51.812Z,22.93
2018-04-02T07:28:17.802Z,26.70
2018-04-02T07:30:43.758Z,23.97
2018-04-02T07:33:10.444Z,26.13
2018-04-02T07:35:36.464Z,23.53
2018-04-02T07:38:02.423Z,26.13
2018-04-02T07:40:28.378Z,25.80
2018-04-02T07:42:54.366Z,26.93
2018-04-02T07:45:21.153Z,27.10
2018-04-02T07:47:47.145Z,26.57
2018-04-02T07:50:13.850Z,25.10
2018-04-02T07:52:39.838Z,26.17
2018-04-02T07:55:06.569Z,25.60
2018-04-02T07:57:33.326Z,23.53
2018-04-02T07:59:59.366Z,26.27
2018-04-02T08:02:25.354Z,25.73
2018-04-02T08:04:51.292Z,24.47
2018-04-02T08:07:17.235Z,24.43
2018-04-02T08:09:43.246Z,24.50
2018-04-02T08:12:09.294Z,25.70
2018-04-02T08:14:36.001Z,22.57
2018-04-02T08:17:02.009Z,23.10
2018-04-02T08:19:27.974Z,22.87
2018-04-02T08:21:53.945Z,21.37
2018-04-02T08:24:19.918Z,21.60
2018-04-02T08:26:45.910Z,19.87
2018-04-02T08:29:11.897Z,21.67
2018-04-02T08:31:37.864Z,21.53
2018-04-02T08:34:04.608Z,21.63
2018-04-02T08:36:30.590Z,20.23
2018-04-02T08:38:56.598Z,19.60
2018-04-02T08:41:23.273Z,19.50
2018-04-02T08:43:49.256Z,19.17
2018-04-02T08:46:15.245Z,19.20
2018-04-02T08:48:41.206Z,19.07
2018-04-02T08:51:07.246Z,20.93
2018-04-02T08:53:33.240Z,19.57
2018-04-02T08:55:59.199Z,19.17
2018-04-02T08:58:25.178Z,17.87
2018-04-02T09:00:51.206Z,19.60
2018-04-02T09:03:17.144Z,21.03
2018-04-02T09:05:43.120Z,21.10
2018-04-02T09:08:09.065Z,21.37
2018-04-02T09:10:35.044Z,19.20
2018-04-02T09:13:01.034Z,19.27
2018-04-02T09:15:27.007Z,18.77
2018-04-02T09:17:52.994Z,21.13
2018-04-02T09:20:18.932Z,21.43
2018-04-02T09:22:44.912Z,18.43
2018-04-02T09:25:10.881Z,17.80
2018-04-02T09:27:37.638Z,19.83
2018-04-02T09:30:04.399Z,17.77
2018-04-02T09:32:30.393Z,17.77
2018-04-02T09:34:56.360Z,17.17
2018-04-02T09:37:23.080Z,16.87
2018-04-02T09:39:49.032Z,15.43
2018-04-02T09:42:14.980Z,15.27
2018-04-02T09:44:40.963Z,13.63
2018-04-02T09:47:06.918Z,14.83
2018-04-02T09:49:32.927Z,14.57
2018-04-02T09:51:58.908Z,13.57
2018-04-02T09:54:24.875Z,14.97
2018-04-02T09:56:51.630Z,14.30
2018-04-02T09:59:18.372Z,13.87
2018-04-02T10:01:44.327Z,14.10
2018-04-02T10:04:10.269Z,12.43
2018-04-02T10:06:36.252Z,14.07
2018-04-02T10:09:02.260Z,11.90
2018-04-02T10:11:28.212Z,12.63
2018-04-02T10:13:54.186Z,12.90
2018-04-02T10:16:20.912Z,12.73
2018-04-02T10:18:46.889Z,12.03
2018-04-02T10:21:13.675Z,12.43
2018-04-02T10:23:39.621Z,11.93
2018-04-02T10:26:05.595Z,13.50
2018-04-02T10:28:32.346Z,13.43
2018-04-02T10:30:58.296Z,13.50
2018-04-02T10:33:24.993Z,13.43
2018-04-02T10:35:51.012Z,13.07
2018-04-02T10:38:16.957Z,15.53
2018-04-02T10:40:42.937Z,16.37
2018-04-02T10:43:08.927Z,14.07
2018-04-02T10:45:34.909Z,14.73
2018-04-02T10:48:00.890Z,15.70
2018-04-02T10:50:26.871Z,18.00
2018-04-02T10:52:52.843Z,15.40
2018-04-02T10:55:19.594Z,17.90
2018-04-02T10:57:46.276Z,16.50
2018-04-02T11:00:12.226Z,17.57
2018-04-02T11:02:38.206Z,15.10
2018-04-02T11:05:04.964Z,16.30
2018-04-02T11:07:31.702Z,16.27
2018-04-02T11:09:57.688Z,16.10
2018-04-02T11:12:23.665Z,15.93
2018-04-02T11:14:49.627Z,17.97
2018-04-02T11:17:16.361Z,17.90
2018-04-02T11:19:42.344Z,17.37
2018-04-02T11:22:08.334Z,16.77
2018-04-02T11:24:34.341Z,16.83
2018-04-02T11:27:00.362Z,16.83
2018-04-02T11:29:26.309Z,16.80
2018-04-02T11:31:52.257Z,16.07
2018-04-02T11:34:18.231Z,16.77
2018-04-02T11:36:44.992Z,15.73
2018-04-02T11:39:11.718Z,17.17
2018-04-02T11:41:37.716Z,17.80
2018-04-02T11:44:03.712Z,16.87
2018-04-02T11:46:30.413Z,16.93
2018-04-02T11:48:56.397Z,17.07
2018-04-02T11:51:23.101Z,16.60
2018-04-02T11:53:49.082Z,17.50
2018-04-02T11:56:15.039Z,17.07
2018-04-02T11:58:41.770Z,15.33
2018-04-02T12:01:07.727Z,19.00
2018-04-02T12:03:34.486Z,16.70
2018-04-02T12:06:00.442Z,16.67
2018-04-02T12:08:26.457Z,16.13
2018-04-02T12:10:52.421Z,16.97
2018-04-02T12:13:18.396Z,18.03
2018-04-02T12:15:44.380Z,17.80
2018-04-02T12:18:10.320Z,17.93
2018-04-02T12:20:36.337Z,18.07
2018-04-02T12:23:02.293Z,17.17
2018-04-02T12:25:28.269Z,15.87
2018-04-02T12:27:54.267Z,17.10
2018-04-02T12:30:20.223Z,17.67
2018-04-02T12:32:46.174Z,17.27
2018-04-02T12:35:12.160Z,16.50
2018-04-02T12:37:38.139Z,17.67
2018-04-02T12:40:04.169Z,16.83
2018-04-02T12:42:30.210Z,17.37
2018-04-02T12:44:56.158Z,18.37
2018-04-02T12:47:22.102Z,17.57
2018-04-02T12:49:48.057Z,17.43
2018-04-02T12:52:14.741Z,17.47
2018-04-02T12:54:40.714Z,17.90
2018-04-02T12:57:06.694Z,18.43
2018-04-02T12:59:32.653Z,16.03
2018-04-02T13:01:58.638Z,17.90
2018-04-02T13:04:24.580Z,16.57
2018-04-02T13:06:51.318Z,16.47
2018-04-02T13:09:17.314Z,16.07
2018-04-02T13:11:43.313Z,16.37
2018-04-02T13:14:10.013Z,16.83
2018-04-02T13:16:36.039Z,15.80
2018-04-02T13:19:02.005Z,15.20
2018-04-02T13:21:27.985Z,17.30
2018-04-02T13:23:53.938Z,15.50
2018-04-02T13:26:19.964Z,15.10
2018-04-02T13:28:45.950Z,18.03
2018-04-02T13:31:11.936Z,15.73
2018-04-02T13:33:37.874Z,15.20
2018-04-02T13:36:03.902Z,16.10
2018-04-02T13:38:29.889Z,14.97
2018-04-02T13:40:55.892Z,15.87
2018-04-02T13:43:22.581Z,16.10
2018-04-02T13:45:48.533Z,17.10
2018-04-02T13:48:14.550Z,15.87
2018-04-02T13:50:40.470Z,15.23
2018-04-02T13:53:06.453Z,15.60
2018-04-02T13:55:33.169Z,16.47
2018-04-02T13:57:59.165Z,16.43
2018-04-02T14:00:25.146Z,15.57
2018-04-02T14:02:51.114Z,14.80
2018-04-02T14:05:17.848Z,16.30
2018-04-02T14:07:43.835Z,15.77
2018-04-02T14:10:09.806Z,15.60
2018-04-02T14:12:35.795Z,16.50
2018-04-02T14:15:01.803Z,16.00
2018-04-02T14:17:27.845Z,16.43
2018-04-02T14:19:55.262Z,16.53
2018-04-02T14:22:21.298Z,16.90
2018-04-02T14:24:47.254Z,16.30
2018-04-02T14:27:13.247Z,15.77
2018-04-02T14:29:39.209Z,15.20
2018-04-02T14:32:05.245Z,15.77
2018-04-02T14:34:31.190Z,13.70
2018-04-02T14:36:57.173Z,13.63
2018-04-02T14:39:23.922Z,15.73
2018-04-02T14:41:50.658Z,15.13
2018-04-02T14:44:16.704Z,14.80
2018-04-02T14:46:42.661Z,13.90
2018-04-02T14:49:09.376Z,15.20
2018-04-02T14:51:35.417Z,14.50
2018-04-02T14:54:01.407Z,15.10
2018-04-02T14:56:27.402Z,14.90
2018-04-02T14:58:53.433Z,16.07
2018-04-02T15:01:19.397Z,13.50
2018-04-02T15:03:46.093Z,14.70
2018-04-02T15:06:12.056Z,12.73
2018-04-02T15:08:38.046Z,14.13
2018-04-02T15:11:04.061Z,13.23
2018-04-02T15:13:31.156Z,14.03
2018-04-02T15:15:57.137Z,12.60
2018-04-02T15:18:23.122Z,12.80
2018-04-02T15:20:49.097Z,13.33
2018-04-02T15:23:16.579Z,13.00
2018-04-02T15:25:44.019Z,12.60
2018-04-02T15:28:09.966Z,13.17
2018-04-02T15:30:35.993Z,13.93
2018-04-02T15:33:01.946Z,12.43
2018-04-02T15:35:30.235Z,13.00
2018-04-02T15:37:56.204Z,12.17
2018-04-02T15:40:22.891Z,12.87
2018-04-02T15:42:48.894Z,12.07
2018-04-02T15:45:14.853Z,11.43
2018-04-02T15:47:40.796Z,12.27
2018-04-02T15:50:06.811Z,11.53
2018-04-02T15:52:32.803Z,13.40
2018-04-02T15:54:59.540Z,12.33
2018-04-02T15:57:25.561Z,11.50
2018-04-02T15:59:51.655Z,13.03
2018-04-02T16:02:18.347Z,12.47
2018-04-02T16:04:44.325Z,13.10
2018-04-02T16:07:10.264Z,11.70
2018-04-02T16:09:36.496Z,12.80
2018-04-02T16:12:03.403Z,11.90
2018-04-02T16:14:29.383Z,12.30
2018-04-02T16:16:55.334Z,13.20
2018-04-02T16:19:21.322Z,12.60
2018-04-02T16:21:47.314Z,13.03
2018-04-02T16:24:13.349Z,11.57
2018-04-02T16:26:39.306Z,11.57
2018-04-02T16:29:06.002Z,11.43
2018-04-02T16:31:32.046Z,12.47
2018-04-02T16:33:58.074Z,11.83
2018-04-02T16:36:24.027Z,10.03
2018-04-02T16:38:49.985Z,10.87
2018-04-02T16:41:16.018Z,11.00
2018-04-02T16:43:42.098Z,11.83
2018-04-02T16:46:08.093Z,11.30
2018-04-02T16:48:34.170Z,11.90
2018-04-02T16:51:00.211Z,11.00
2018-04-02T16:53:26.213Z,12.50
2018-04-02T16:55:52.182Z,11.23
2018-04-02T16:58:18.218Z,11.33
2018-04-02T17:00:44.212Z,11.47
2018-04-02T17:03:10.961Z,11.13
2018-04-02T17:05:36.964Z,11.53
2018-04-02T17:08:02.970Z,11.47
2018-04-02T17:10:28.962Z,10.60
2018-04-02T17:12:54.946Z,11.03
2018-04-02T17:15:20.904Z,9.93
2018-04-02T17:17:46.905Z,12.83
2018-04-02T17:20:13.638Z,10.40
2018-04-02T17:22:39.583Z,11.50
2018-04-02T17:25:06.321Z,11.80
2018-04-02T17:27:32.274Z,11.47
2018-04-02T17:29:59.024Z,11.77
2018-04-02T17:32:25.762Z,10.43
2018-04-02T17:34:51.733Z,10.03
2018-04-02T17:37:17.670Z,10.53
2018-04-02T17:39:43.734Z,10.90
2018-04-02T17:42:09.725Z,11.30
2018-04-02T17:44:36.410Z,13.20
2018-04-02T17:47:02.472Z,11.97
2018-04-02T17:49:28.776Z,12.80
2018-04-02T17:51:54.759Z,11.43
2018-04-02T17:54:20.778Z,10.97
2018-04-02T17:56:46.770Z,13.07
2018-04-02T17:59:13.484Z,11.50
2018-04-02T18:01:39.528Z,11.83
2018-04-02T18:04:05.504Z,11.53
2018-04-02T18:06:32.501Z,11.90
2018-04-02T18:08:58.371Z,12.30
2018-04-02T18:11:24.422Z,10.33
2018-04-02T18:13:51.155Z,11.30
2018-04-02T18:16:17.092Z,12.27
2018-04-02T18:18:43.056Z,12.20
2018-04-02T18:21:09.805Z,19.17
2018-04-02T18:23:36.570Z,28.97
2018-04-02T18:26:03.306Z,34.97
2018-04-02T18:28:30.128Z,19.50
2018-04-02T18:30:56.103Z,20.27
2018-04-02T18:33:22.825Z,25.37
2018-04-02T18:35:48.809Z,27.77
2018-04-02T18:38:15.175Z,22.80
2018-04-02T18:40:41.122Z,17.83
2018-04-02T18:43:07.105Z,17.03
2018-04-02T18:45:33.840Z,16.63
2018-04-02T18:47:59.818Z,16.60
2018-04-02T18:50:25.810Z,16.00
2018-04-02T18:52:52.550Z,15.63
2018-04-02T18:55:18.530Z,15.30
2018-04-02T18:57:45.244Z,15.57
2018-04-02T19:00:11.210Z,14.00
2018-04-02T19:02:37.934Z,14.20
2018-04-02T19:05:03.906Z,15.83
2018-04-02T19:07:30.696Z,16.33
2018-04-02T19:09:56.682Z,15.30
2018-04-02T19:12:22.656Z,13.93
2018-04-02T19:14:48.603Z,14.67
2018-04-02T19:17:14.748Z,14.40
2018-04-02T19:19:40.760Z,13.83
2018-04-02T19:22:06.729Z,15.57
2018-04-02T19:24:32.740Z,15.00
2018-04-02T19:26:58.684Z,12.57
2018-04-02T19:29:24.669Z,12.70
2018-04-02T19:31:50.662Z,12.33
2018-04-02T19:34:16.720Z,13.00
2018-04-02T19:36:42.721Z,12.70
2018-04-02T19:39:08.670Z,13.23
2018-04-02T19:41:34.645Z,14.07
2018-04-02T19:44:00.709Z,13.50
2018-04-02T19:46:26.652Z,13.53
2018-04-02T19:48:52.638Z,13.00
2018-04-02T19:51:18.627Z,12.90
2018-04-02T19:53:44.650Z,14.63
2018-04-02T19:56:11.334Z,13.63
2018-04-02T19:58:37.328Z,14.07
2018-04-02T20:01:04.024Z,16.67
2018-04-02T20:03:30.021Z,15.30
2018-04-02T20:05:56.730Z,15.13
2018-04-02T20:08:22.721Z,15.80
2018-04-02T20:10:49.432Z,15.73
2018-04-02T20:13:15.436Z,14.30
2018-04-02T20:15:41.450Z,14.80
2018-04-02T20:18:07.430Z,14.70
2018-04-02T20:20:33.462Z,14.00
2018-04-02T20:22:59.531Z,15.00
2018-04-02T20:25:25.469Z,13.63
2018-04-02T20:27:51.445Z,15.90
2018-04-02T20:30:17.511Z,15.80
2018-04-02T20:32:43.465Z,14.37
2018-04-02T20:35:09.475Z,15.80
2018-04-02T20:37:35.479Z,15.47
2018-04-02T20:40:01.463Z,16.03
2018-04-02T20:42:27.431Z,15.20
2018-04-02T20:44:54.165Z,15.37
2018-04-02T20:47:20.108Z,14.33
2018-04-02T20:49:46.131Z,13.83
2018-04-02T20:52:12.102Z,14.50
2018-04-02T20:54:38.846Z,13.60
2018-04-02T20:57:05.826Z,14.27
2018-04-02T20:59:31.808Z,14.87
2018-04-02T21:01:57.792Z,14.60
2018-04-02T21:04:24.528Z,13.97
2018-04-02T21:06:51.226Z,14.43
2018-04-02T21:09:17.214Z,16.07
2018-04-02T21:11:43.970Z,16.00
2018-04-02T21:14:10.739Z,14.50
2018-04-02T21:16:37.434Z,13.53
2018-04-02T21:19:03.408Z,15.80
2018-04-02T21:21:29.349Z,15.23
2018-04-02T21:23:55.323Z,15.33
2018-04-02T21:26:21.261Z,16.17
2018-04-02T21:28:47.230Z,14.57
2018-04-02T21:31:13.215Z,13.20
2018-04-02T21:33:39.206Z,15.57
2018-04-02T21:36:05.190Z,15.50
2018-04-02T21:38:31.180Z,15.17
2018-04-02T21:40:57.179Z,15.00
2018-04-02T21:43:23.153Z,14.50
2018-04-02T21:45:49.116Z,15.50
2018-04-02T21:48:15.897Z,14.93
2018-04-02T21:50:41.858Z,16.03
2018-04-02T21:53:07.816Z,14.47
2018-04-02T21:55:33.798Z,15.23
2018-04-02T21:57:59.752Z,14.40
2018-04-02T22:00:25.732Z,15.20
2018-04-02T22:02:51.683Z,16.03
2018-04-02T22:05:18.452Z,16.00
2018-04-02T22:07:44.491Z,16.03
2018-04-02T22:10:10.454Z,15.47
2018-04-02T22:12:36.428Z,15.43
2018-04-02T22:15:02.414Z,16.20
2018-04-02T22:17:28.368Z,13.90
2018-04-02T22:19:54.336Z,14.87
2018-04-02T22:22:20.288Z,15.17
2018-04-02T22:24:47.036Z,14.70
2018-04-02T22:27:13.762Z,15.00
2018-04-02T22:29:39.730Z,14.37
2018-04-02T22:32:06.453Z,14.87
2018-04-02T22:34:32.414Z,15.53
2018-04-02T22:36:59.149Z,15.80
2018-04-02T22:39:25.093Z,15.10
2018-04-02T22:41:51.138Z,14.60
2018-04-02T22:44:17.097Z,14.30
2018-04-02T22:46:43.053Z,14.80
2018-04-02T22:49:09.038Z,15.53
2018-04-02T22:51:34.988Z,13.87
2018-04-02T22:54:01.735Z,14.00
2018-04-02T22:56:28.437Z,14.80
2018-04-02T22:58:54.432Z,14.97
2018-04-02T23:01:21.167Z,14.50
2018-04-02T23:03:47.332Z,14.20
2018-04-02T23:06:14.073Z,13.93
2018-04-02T23:08:40.808Z,14.50
2018-04-02T23:11:06.784Z,13.80
2018-04-02T23:13:32.737Z,14.33
2018-04-02T23:15:58.721Z,13.07
2018-04-02T23:18:24.727Z,14.90
2018-04-02T23:20:51.372Z,12.30
2018-04-02T23:23:17.443Z,13.10
2018-04-02T23:25:44.191Z,11.73
2018-04-02T23:28:10.189Z,13.10
2018-04-02T23:30:36.142Z,12.50
2018-04-02T23:33:02.148Z,12.00
2018-04-02T23:35:28.102Z,11.77
2018-04-02T23:37:54.084Z,11.80
2018-04-02T23:40:20.084Z,11.50
2018-04-02T23:42:46.052Z,9.80
2018-04-02T23:45:12.036Z,10.50
2018-04-02T23:47:37.981Z,9.77
2018-04-02T23:50:03.953Z,10.70
2018-04-02T23:52:31.400Z,10.00
2018-04-02T23:54:57.393Z,10.50
2018-04-02T23:57:24.114Z,10.37
2018-04-02T23:59:50.102Z,9.03
